sensor_id;sensor_type;location;lat;lon;timestamp;P1;durP1;ratioP1;P2;durP2;ratioP2
53253;SDS011;39148;53.332;6.922;2023-04-07T00:00:24;10.75;;;8.25;;
53253;SDS011;39148;53.332;6.922;2023-04-07T00:02:51;10.32;;;7.63;;
53253;SDS011;39148;53.332;6.922;2023-04-07T00:05:17;10.23;;;8.45;;
53253;SDS011;39148;53.332;6.922;2023-04-07T00:07:43;10.55;;;8.07;;
53253;SDS011;39148;53.332;6.922;2023-04-07T00:10:09;11.77;;;7.53;;
53253;SDS011;39148;53.332;6.922;2023-04-07T00:12:35;10.70;;;7.82;;
53253;SDS011;39148;53.332;6.922;2023-04-07T00:15:01;9.90;;;7.80;;
53253;SDS011;39148;53.332;6.922;2023-04-07T00:17:27;9.45;;;7.18;;
53253;SDS011;39148;53.332;6.922;2023-04-07T00:19:53;9.95;;;8.00;;
53253;SDS011;39148;53.332;6.922;2023-04-07T00:22:19;10.68;;;7.90;;
53253;SDS011;39148;53.332;6.922;2023-04-07T00:24:46;9.07;;;6.93;;
53253;SDS011;39148;53.332;6.922;2023-04-07T00:27:12;10.05;;;8.02;;
53253;SDS011;39148;53.332;6.922;2023-04-07T00:29:38;10.00;;;7.45;;
53253;SDS011;39148;53.332;6.922;2023-04-07T00:32:04;9.80;;;7.57;;
53253;SDS011;39148;53.332;6.922;2023-04-07T00:34:30;10.88;;;7.90;;
53253;SDS011;39148;53.332;6.922;2023-04-07T00:36:56;9.77;;;7.45;;
53253;SDS011;39148;53.332;6.922;2023-04-07T00:39:22;11.25;;;7.50;;
53253;SDS011;39148;53.332;6.922;2023-04-07T00:41:48;10.80;;;7.38;;
53253;SDS011;39148;53.332;6.922;2023-04-07T00:44:15;10.57;;;8.10;;
53253;SDS011;39148;53.332;6.922;2023-04-07T00:46:41;9.15;;;6.93;;
53253;SDS011;39148;53.332;6.922;2023-04-07T00:49:07;10.15;;;7.40;;
53253;SDS011;39148;53.332;6.922;2023-04-07T00:51:33;8.95;;;6.95;;
53253;SDS011;39148;53.332;6.922;2023-04-07T00:54:00;10.18;;;7.15;;
53253;SDS011;39148;53.332;6.922;2023-04-07T00:56:26;9.68;;;7.10;;
53253;SDS011;39148;53.332;6.922;2023-04-07T00:58:53;9.40;;;7.00;;
53253;SDS011;39148;53.332;6.922;2023-04-07T01:01:20;11.52;;;7.75;;
53253;SDS011;39148;53.332;6.922;2023-04-07T01:06:27;9.32;;;6.97;;
53253;SDS011;39148;53.332;6.922;2023-04-07T01:09:06;9.45;;;6.88;;
53253;SDS011;39148;53.332;6.922;2023-04-07T01:11:43;9.27;;;6.80;;
53253;SDS011;39148;53.332;6.922;2023-04-07T01:14:12;9.18;;;7.15;;
53253;SDS011;39148;53.332;6.922;2023-04-07T01:16:48;9.13;;;6.53;;
53253;SDS011;39148;53.332;6.922;2023-04-07T01:19:31;10.80;;;7.38;;
53253;SDS011;39148;53.332;6.922;2023-04-07T01:21:58;9.88;;;7.07;;
53253;SDS011;39148;53.332;6.922;2023-04-07T01:27:16;9.20;;;6.70;;
53253;SDS011;39148;53.332;6.922;2023-04-07T01:29:44;9.13;;;6.97;;
53253;SDS011;39148;53.332;6.922;2023-04-07T01:32:12;9.27;;;7.22;;
53253;SDS011;39148;53.332;6.922;2023-04-07T01:34:39;8.77;;;6.47;;
53253;SDS011;39148;53.332;6.922;2023-04-07T01:37:06;9.25;;;6.25;;
53253;SDS011;39148;53.332;6.922;2023-04-07T01:39:33;9.55;;;7.07;;
53253;SDS011;39148;53.332;6.922;2023-04-07T01:42:00;8.68;;;6.38;;
53253;SDS011;39148;53.332;6.922;2023-04-07T01:44:26;10.45;;;7.63;;
53253;SDS011;39148;53.332;6.922;2023-04-07T01:46:53;8.60;;;6.38;;
53253;SDS011;39148;53.332;6.922;2023-04-07T01:49:19;8.48;;;6.30;;
53253;SDS011;39148;53.332;6.922;2023-04-07T01:51:46;8.88;;;6.35;;
53253;SDS011;39148;53.332;6.922;2023-04-07T01:54:14;8.88;;;6.53;;
53253;SDS011;39148;53.332;6.922;2023-04-07T01:56:42;8.65;;;6.13;;
53253;SDS011;39148;53.332;6.922;2023-04-07T01:59:08;8.07;;;6.28;;
53253;SDS011;39148;53.332;6.922;2023-04-07T02:01:35;8.30;;;6.20;;
53253;SDS011;39148;53.332;6.922;2023-04-07T02:04:04;9.82;;;7.20;;
53253;SDS011;39148;53.332;6.922;2023-04-07T02:06:33;8.77;;;6.53;;
53253;SDS011;39148;53.332;6.922;2023-04-07T02:09:01;8.18;;;6.20;;
53253;SDS011;39148;53.332;6.922;2023-04-07T02:11:31;8.15;;;6.13;;
53253;SDS011;39148;53.332;6.922;2023-04-07T02:13:57;8.57;;;6.07;;
53253;SDS011;39148;53.332;6.922;2023-04-07T02:16:26;8.75;;;6.47;;
53253;SDS011;39148;53.332;6.922;2023-04-07T02:18:53;9.05;;;6.07;;
53253;SDS011;39148;53.332;6.922;2023-04-07T02:21:19;8.13;;;5.80;;
53253;SDS011;39148;53.332;6.922;2023-04-07T02:23:46;8.35;;;5.50;;
53253;SDS011;39148;53.332;6.922;2023-04-07T02:26:12;7.82;;;5.88;;
53253;SDS011;39148;53.332;6.922;2023-04-07T02:28:38;7.88;;;5.70;;
53253;SDS011;39148;53.332;6.922;2023-04-07T02:31:04;8.55;;;5.93;;
53253;SDS011;39148;53.332;6.922;2023-04-07T02:33:30;8.82;;;6.28;;
53253;SDS011;39148;53.332;6.922;2023-04-07T02:35:56;8.35;;;6.03;;
53253;SDS011;39148;53.332;6.922;2023-04-07T02:38:22;8.27;;;5.93;;
53253;SDS011;39148;53.332;6.922;2023-04-07T02:40:48;9.98;;;6.32;;
53253;SDS011;39148;53.332;6.922;2023-04-07T02:43:14;8.32;;;6.30;;
53253;SDS011;39148;53.332;6.922;2023-04-07T02:45:41;8.02;;;5.75;;
53253;SDS011;39148;53.332;6.922;2023-04-07T02:48:07;7.35;;;5.45;;
53253;SDS011;39148;53.332;6.922;2023-04-07T02:50:34;8.32;;;6.28;;
53253;SDS011;39148;53.332;6.922;2023-04-07T02:53:00;8.52;;;5.97;;
53253;SDS011;39148;53.332;6.922;2023-04-07T02:55:26;7.63;;;5.72;;
53253;SDS011;39148;53.332;6.922;2023-04-07T02:57:52;9.52;;;5.72;;
53253;SDS011;39148;53.332;6.922;2023-04-07T03:00:18;8.23;;;6.13;;
53253;SDS011;39148;53.332;6.922;2023-04-07T03:02:44;7.65;;;5.47;;
53253;SDS011;39148;53.332;6.922;2023-04-07T03:05:10;7.30;;;5.75;;
53253;SDS011;39148;53.332;6.922;2023-04-07T03:07:36;7.97;;;5.57;;
53253;SDS011;39148;53.332;6.922;2023-04-07T03:10:01;7.72;;;5.68;;
53253;SDS011;39148;53.332;6.922;2023-04-07T03:12:27;8.20;;;6.18;;
53253;SDS011;39148;53.332;6.922;2023-04-07T03:14:54;8.07;;;5.85;;
53253;SDS011;39148;53.332;6.922;2023-04-07T03:17:20;7.95;;;5.60;;
53253;SDS011;39148;53.332;6.922;2023-04-07T03:19:45;7.72;;;5.90;;
53253;SDS011;39148;53.332;6.922;2023-04-07T03:22:11;9.32;;;5.18;;
53253;SDS011;39148;53.332;6.922;2023-04-07T03:24:37;8.10;;;5.47;;
53253;SDS011;39148;53.332;6.922;2023-04-07T03:27:05;7.25;;;5.63;;
53253;SDS011;39148;53.332;6.922;2023-04-07T03:29:31;7.32;;;5.35;;
53253;SDS011;39148;53.332;6.922;2023-04-07T03:31:57;7.80;;;5.65;;
53253;SDS011;39148;53.332;6.922;2023-04-07T03:34:23;7.90;;;5.68;;
53253;SDS011;39148;53.332;6.922;2023-04-07T03:36:48;8.20;;;5.80;;
53253;SDS011;39148;53.332;6.922;2023-04-07T03:39:15;7.53;;;5.13;;
53253;SDS011;39148;53.332;6.922;2023-04-07T03:41:41;7.00;;;5.13;;
53253;SDS011;39148;53.332;6.922;2023-04-07T03:44:07;8.15;;;5.80;;
53253;SDS011;39148;53.332;6.922;2023-04-07T03:46:33;7.50;;;5.53;;
53253;SDS011;39148;53.332;6.922;2023-04-07T03:48:58;7.38;;;5.20;;
53253;SDS011;39148;53.332;6.922;2023-04-07T03:51:24;7.45;;;5.55;;
53253;SDS011;39148;53.332;6.922;2023-04-07T03:53:52;7.28;;;5.35;;
53253;SDS011;39148;53.332;6.922;2023-04-07T03:56:18;7.30;;;5.70;;
53253;SDS011;39148;53.332;6.922;2023-04-07T03:58:45;7.35;;;5.30;;
53253;SDS011;39148;53.332;6.922;2023-04-07T04:01:12;7.40;;;5.10;;
53253;SDS011;39148;53.332;6.922;2023-04-07T04:03:38;7.30;;;5.50;;
53253;SDS011;39148;53.332;6.922;2023-04-07T04:06:04;7.93;;;5.38;;
53253;SDS011;39148;53.332;6.922;2023-04-07T04:08:31;7.55;;;5.75;;
53253;SDS011;39148;53.332;6.922;2023-04-07T04:10:57;7.30;;;5.30;;
53253;SDS011;39148;53.332;6.922;2023-04-07T04:13:23;8.55;;;5.85;;
53253;SDS011;39148;53.332;6.922;2023-04-07T04:15:49;7.95;;;5.72;;
53253;SDS011;39148;53.332;6.922;2023-04-07T04:18:16;8.10;;;5.90;;
53253;SDS011;39148;53.332;6.922;2023-04-07T04:20:42;7.60;;;5.40;;
53253;SDS011;39148;53.332;6.922;2023-04-07T04:23:08;8.18;;;5.28;;
53253;SDS011;39148;53.332;6.922;2023-04-07T04:25:34;8.02;;;5.72;;
53253;SDS011;39148;53.332;6.922;2023-04-07T04:28:03;7.28;;;5.10;;
53253;SDS011;39148;53.332;6.922;2023-04-07T04:30:30;7.50;;;5.40;;
53253;SDS011;39148;53.332;6.922;2023-04-07T04:32:56;7.97;;;5.75;;
53253;SDS011;39148;53.332;6.922;2023-04-07T04:35:22;7.85;;;5.40;;
53253;SDS011;39148;53.332;6.922;2023-04-07T04:37:48;7.53;;;5.25;;
53253;SDS011;39148;53.332;6.922;2023-04-07T04:40:14;7.78;;;5.30;;
53253;SDS011;39148;53.332;6.922;2023-04-07T04:42:40;7.65;;;5.13;;
53253;SDS011;39148;53.332;6.922;2023-04-07T04:45:07;8.70;;;5.75;;
53253;SDS011;39148;53.332;6.922;2023-04-07T04:47:33;8.18;;;5.35;;
53253;SDS011;39148;53.332;6.922;2023-04-07T04:49:58;7.65;;;5.43;;
53253;SDS011;39148;53.332;6.922;2023-04-07T04:52:24;8.30;;;5.40;;
53253;SDS011;39148;53.332;6.922;2023-04-07T04:54:51;6.97;;;4.80;;
53253;SDS011;39148;53.332;6.922;2023-04-07T04:57:17;7.40;;;5.18;;
53253;SDS011;39148;53.332;6.922;2023-04-07T04:59:43;8.20;;;5.68;;
53253;SDS011;39148;53.332;6.922;2023-04-07T05:02:09;8.20;;;6.50;;
53253;SDS011;39148;53.332;6.922;2023-04-07T05:04:35;8.23;;;5.70;;
53253;SDS011;39148;53.332;6.922;2023-04-07T05:07:01;9.50;;;5.63;;
53253;SDS011;39148;53.332;6.922;2023-04-07T05:09:27;7.38;;;5.45;;
53253;SDS011;39148;53.332;6.922;2023-04-07T05:11:54;8.65;;;5.60;;
53253;SDS011;39148;53.332;6.922;2023-04-07T05:14:20;8.20;;;5.78;;
53253;SDS011;39148;53.332;6.922;2023-04-07T05:16:46;7.90;;;5.35;;
53253;SDS011;39148;53.332;6.922;2023-04-07T05:19:12;7.97;;;5.57;;
53253;SDS011;39148;53.332;6.922;2023-04-07T05:21:39;7.88;;;5.03;;
53253;SDS011;39148;53.332;6.922;2023-04-07T05:24:05;8.50;;;5.72;;
53253;SDS011;39148;53.332;6.922;2023-04-07T05:26:31;7.70;;;5.43;;
53253;SDS011;39148;53.332;6.922;2023-04-07T05:28:57;8.07;;;5.88;;
53253;SDS011;39148;53.332;6.922;2023-04-07T05:31:23;7.88;;;5.25;;
53253;SDS011;39148;53.332;6.922;2023-04-07T05:33:50;7.57;;;5.25;;
53253;SDS011;39148;53.332;6.922;2023-04-07T05:36:16;7.40;;;5.45;;
53253;SDS011;39148;53.332;6.922;2023-04-07T05:38:42;7.75;;;5.35;;
53253;SDS011;39148;53.332;6.922;2023-04-07T05:41:08;8.15;;;5.25;;
53253;SDS011;39148;53.332;6.922;2023-04-07T05:43:34;8.20;;;5.55;;
53253;SDS011;39148;53.332;6.922;2023-04-07T05:46:00;7.07;;;5.10;;
53253;SDS011;39148;53.332;6.922;2023-04-07T05:48:26;10.35;;;5.68;;
53253;SDS011;39148;53.332;6.922;2023-04-07T05:50:52;7.05;;;5.22;;
53253;SDS011;39148;53.332;6.922;2023-04-07T05:53:18;8.00;;;5.65;;
53253;SDS011;39148;53.332;6.922;2023-04-07T05:55:45;7.53;;;5.28;;
53253;SDS011;39148;53.332;6.922;2023-04-07T05:58:11;7.82;;;5.63;;
53253;SDS011;39148;53.332;6.922;2023-04-07T06:00:37;7.75;;;5.43;;
53253;SDS011;39148;53.332;6.922;2023-04-07T06:03:03;8.18;;;5.50;;
53253;SDS011;39148;53.332;6.922;2023-04-07T06:05:29;8.75;;;6.30;;
53253;SDS011;39148;53.332;6.922;2023-04-07T06:07:55;8.15;;;5.43;;
53253;SDS011;39148;53.332;6.922;2023-04-07T06:10:21;7.28;;;5.45;;
53253;SDS011;39148;53.332;6.922;2023-04-07T06:12:47;8.18;;;5.70;;
53253;SDS011;39148;53.332;6.922;2023-04-07T06:15:14;9.32;;;6.05;;
53253;SDS011;39148;53.332;6.922;2023-04-07T06:17:40;7.80;;;5.75;;
53253;SDS011;39148;53.332;6.922;2023-04-07T06:20:06;9.15;;;6.18;;
53253;SDS011;39148;53.332;6.922;2023-04-07T06:22:33;8.75;;;5.95;;
53253;SDS011;39148;53.332;6.922;2023-04-07T06:24:59;8.48;;;5.93;;
53253;SDS011;39148;53.332;6.922;2023-04-07T06:27:25;8.00;;;5.68;;
53253;SDS011;39148;53.332;6.922;2023-04-07T06:29:51;8.10;;;5.68;;
53253;SDS011;39148;53.332;6.922;2023-04-07T06:32:17;8.82;;;5.32;;
53253;SDS011;39148;53.332;6.922;2023-04-07T06:34:44;8.27;;;5.47;;
53253;SDS011;39148;53.332;6.922;2023-04-07T06:37:10;7.80;;;5.78;;
53253;SDS011;39148;53.332;6.922;2023-04-07T06:39:36;8.73;;;6.35;;
53253;SDS011;39148;53.332;6.922;2023-04-07T06:42:02;7.95;;;6.03;;
53253;SDS011;39148;53.332;6.922;2023-04-07T06:44:28;8.07;;;5.85;;
53253;SDS011;39148;53.332;6.922;2023-04-07T06:46:54;7.57;;;5.68;;
53253;SDS011;39148;53.332;6.922;2023-04-07T06:49:20;8.32;;;6.13;;
53253;SDS011;39148;53.332;6.922;2023-04-07T06:51:46;8.10;;;5.93;;
53253;SDS011;39148;53.332;6.922;2023-04-07T06:54:12;8.95;;;6.25;;
53253;SDS011;39148;53.332;6.922;2023-04-07T06:56:39;8.32;;;5.63;;
53253;SDS011;39148;53.332;6.922;2023-04-07T06:59:05;7.78;;;5.18;;
53253;SDS011;39148;53.332;6.922;2023-04-07T07:01:32;8.00;;;5.57;;
53253;SDS011;39148;53.332;6.922;2023-04-07T07:03:58;8.73;;;5.63;;
53253;SDS011;39148;53.332;6.922;2023-04-07T07:06:27;7.18;;;5.22;;
53253;SDS011;39148;53.332;6.922;2023-04-07T07:08:53;7.65;;;5.53;;
53253;SDS011;39148;53.332;6.922;2023-04-07T07:11:19;7.80;;;5.90;;
53253;SDS011;39148;53.332;6.922;2023-04-07T07:13:45;7.93;;;5.47;;
53253;SDS011;39148;53.332;6.922;2023-04-07T07:16:12;8.73;;;6.10;;
53253;SDS011;39148;53.332;6.922;2023-04-07T07:18:38;7.50;;;5.63;;
53253;SDS011;39148;53.332;6.922;2023-04-07T07:21:04;7.85;;;5.88;;
53253;SDS011;39148;53.332;6.922;2023-04-07T07:23:30;8.35;;;5.85;;
53253;SDS011;39148;53.332;6.922;2023-04-07T07:25:56;7.53;;;5.30;;
53253;SDS011;39148;53.332;6.922;2023-04-07T07:28:22;7.85;;;5.70;;
53253;SDS011;39148;53.332;6.922;2023-04-07T07:30:48;8.52;;;5.90;;
53253;SDS011;39148;53.332;6.922;2023-04-07T07:33:14;8.18;;;5.95;;
53253;SDS011;39148;53.332;6.922;2023-04-07T07:35:41;8.15;;;5.95;;
53253;SDS011;39148;53.332;6.922;2023-04-07T07:38:07;9.23;;;6.22;;
53253;SDS011;39148;53.332;6.922;2023-04-07T07:40:33;8.40;;;6.18;;
53253;SDS011;39148;53.332;6.922;2023-04-07T07:42:59;7.82;;;5.85;;
53253;SDS011;39148;53.332;6.922;2023-04-07T07:45:25;8.20;;;5.55;;
53253;SDS011;39148;53.332;6.922;2023-04-07T07:47:51;8.43;;;6.25;;
53253;SDS011;39148;53.332;6.922;2023-04-07T07:50:17;8.45;;;6.32;;
53253;SDS011;39148;53.332;6.922;2023-04-07T07:52:43;8.82;;;6.15;;
53253;SDS011;39148;53.332;6.922;2023-04-07T07:55:10;7.80;;;5.82;;
53253;SDS011;39148;53.332;6.922;2023-04-07T07:57:36;7.40;;;5.53;;
53253;SDS011;39148;53.332;6.922;2023-04-07T08:00:02;7.95;;;5.95;;
53253;SDS011;39148;53.332;6.922;2023-04-07T08:02:28;8.40;;;5.85;;
53253;SDS011;39148;53.332;6.922;2023-04-07T08:04:56;8.88;;;6.22;;
53253;SDS011;39148;53.332;6.922;2023-04-07T08:07:23;8.48;;;6.53;;
53253;SDS011;39148;53.332;6.922;2023-04-07T08:09:49;8.05;;;5.88;;
53253;SDS011;39148;53.332;6.922;2023-04-07T08:12:15;9.20;;;6.47;;
53253;SDS011;39148;53.332;6.922;2023-04-07T08:14:41;8.93;;;6.35;;
53253;SDS011;39148;53.332;6.922;2023-04-07T08:17:07;9.50;;;6.20;;
53253;SDS011;39148;53.332;6.922;2023-04-07T08:19:33;8.50;;;6.43;;
53253;SDS011;39148;53.332;6.922;2023-04-07T08:21:59;8.40;;;6.35;;
53253;SDS011;39148;53.332;6.922;2023-04-07T08:24:27;8.38;;;5.82;;
53253;SDS011;39148;53.332;6.922;2023-04-07T08:26:53;8.27;;;6.07;;
53253;SDS011;39148;53.332;6.922;2023-04-07T08:29:20;9.35;;;6.80;;
53253;SDS011;39148;53.332;6.922;2023-04-07T08:31:46;8.57;;;6.55;;
53253;SDS011;39148;53.332;6.922;2023-04-07T08:34:12;9.02;;;6.53;;
53253;SDS011;39148;53.332;6.922;2023-04-07T08:36:39;8.60;;;5.85;;
53253;SDS011;39148;53.332;6.922;2023-04-07T08:39:05;7.90;;;6.18;;
53253;SDS011;39148;53.332;6.922;2023-04-07T08:41:38;9.25;;;6.75;;
53253;SDS011;39148;53.332;6.922;2023-04-07T08:44:06;9.35;;;6.40;;
53253;SDS011;39148;53.332;6.922;2023-04-07T08:46:33;8.45;;;6.30;;
53253;SDS011;39148;53.332;6.922;2023-04-07T08:49:00;9.68;;;6.40;;
53253;SDS011;39148;53.332;6.922;2023-04-07T08:51:27;9.60;;;6.82;;
53253;SDS011;39148;53.332;6.922;2023-04-07T08:53:57;8.48;;;6.10;;
53253;SDS011;39148;53.332;6.922;2023-04-07T08:56:25;9.52;;;6.72;;
53253;SDS011;39148;53.332;6.922;2023-04-07T08:58:51;9.48;;;6.60;;
53253;SDS011;39148;53.332;6.922;2023-04-07T09:01:17;9.05;;;6.60;;
53253;SDS011;39148;53.332;6.922;2023-04-07T09:03:44;10.07;;;6.90;;
53253;SDS011;39148;53.332;6.922;2023-04-07T09:06:12;8.30;;;5.75;;
53253;SDS011;39148;53.332;6.922;2023-04-07T09:08:39;9.27;;;6.68;;
53253;SDS011;39148;53.332;6.922;2023-04-07T09:11:05;9.27;;;6.60;;
53253;SDS011;39148;53.332;6.922;2023-04-07T09:13:31;9.25;;;6.35;;
53253;SDS011;39148;53.332;6.922;2023-04-07T09:15:58;8.43;;;6.20;;
53253;SDS011;39148;53.332;6.922;2023-04-07T09:18:26;9.48;;;6.72;;
53253;SDS011;39148;53.332;6.922;2023-04-07T09:20:56;9.35;;;6.47;;
53253;SDS011;39148;53.332;6.922;2023-04-07T09:23:41;7.72;;;5.88;;
53253;SDS011;39148;53.332;6.922;2023-04-07T09:26:28;8.55;;;5.93;;
53253;SDS011;39148;53.332;6.922;2023-04-07T09:31:22;8.50;;;6.18;;
53253;SDS011;39148;53.332;6.922;2023-04-07T09:33:50;8.55;;;6.50;;
53253;SDS011;39148;53.332;6.922;2023-04-07T09:36:17;8.10;;;6.57;;
53253;SDS011;39148;53.332;6.922;2023-04-07T09:38:43;9.52;;;6.30;;
53253;SDS011;39148;53.332;6.922;2023-04-07T09:41:14;9.38;;;5.93;;
53253;SDS011;39148;53.332;6.922;2023-04-07T09:43:41;9.00;;;6.22;;
53253;SDS011;39148;53.332;6.922;2023-04-07T09:48:34;9.45;;;6.45;;
53253;SDS011;39148;53.332;6.922;2023-04-07T09:51:04;8.10;;;6.35;;
53253;SDS011;39148;53.332;6.922;2023-04-07T09:53:44;8.30;;;6.47;;
53253;SDS011;39148;53.332;6.922;2023-04-07T09:56:13;8.52;;;6.20;;
53253;SDS011;39148;53.332;6.922;2023-04-07T09:58:40;8.35;;;6.28;;
53253;SDS011;39148;53.332;6.922;2023-04-07T10:01:08;8.15;;;6.18;;
53253;SDS011;39148;53.332;6.922;2023-04-07T10:03:35;10.07;;;6.57;;
53253;SDS011;39148;53.332;6.922;2023-04-07T10:06:01;8.93;;;6.40;;
53253;SDS011;39148;53.332;6.922;2023-04-07T10:08:28;8.55;;;6.03;;
53253;SDS011;39148;53.332;6.922;2023-04-07T10:10:56;7.88;;;5.88;;
53253;SDS011;39148;53.332;6.922;2023-04-07T10:13:23;8.65;;;5.88;;
53253;SDS011;39148;53.332;6.922;2023-04-07T10:15:51;9.32;;;6.18;;
53253;SDS011;39148;53.332;6.922;2023-04-07T10:18:17;7.78;;;5.90;;
53253;SDS011;39148;53.332;6.922;2023-04-07T10:20:45;7.60;;;6.03;;
53253;SDS011;39148;53.332;6.922;2023-04-07T10:23:20;9.10;;;5.68;;
53253;SDS011;39148;53.332;6.922;2023-04-07T10:25:48;8.80;;;6.40;;
53253;SDS011;39148;53.332;6.922;2023-04-07T10:28:15;8.23;;;5.65;;
53253;SDS011;39148;53.332;6.922;2023-04-07T10:30:41;8.35;;;5.75;;
53253;SDS011;39148;53.332;6.922;2023-04-07T10:33:09;7.22;;;5.43;;
53253;SDS011;39148;53.332;6.922;2023-04-07T10:36:17;7.35;;;5.43;;
53253;SDS011;39148;53.332;6.922;2023-04-07T10:38:24;7.97;;;5.93;;
53253;SDS011;39148;53.332;6.922;2023-04-07T10:40:50;8.07;;;5.55;;
53253;SDS011;39148;53.332;6.922;2023-04-07T10:43:35;7.50;;;5.95;;
53253;SDS011;39148;53.332;6.922;2023-04-07T10:46:01;8.10;;;5.95;;
53253;SDS011;39148;53.332;6.922;2023-04-07T10:48:28;8.60;;;5.90;;
53253;SDS011;39148;53.332;6.922;2023-04-07T10:53:29;8.27;;;6.13;;
53253;SDS011;39148;53.332;6.922;2023-04-07T10:55:55;8.15;;;6.35;;
53253;SDS011;39148;53.332;6.922;2023-04-07T10:58:28;8.75;;;6.20;;
53253;SDS011;39148;53.332;6.922;2023-04-07T11:03:37;8.20;;;5.63;;
53253;SDS011;39148;53.332;6.922;2023-04-07T11:06:03;7.50;;;5.63;;
53253;SDS011;39148;53.332;6.922;2023-04-07T11:08:33;9.07;;;6.63;;
53253;SDS011;39148;53.332;6.922;2023-04-07T11:11:00;7.38;;;5.88;;
53253;SDS011;39148;53.332;6.922;2023-04-07T11:13:26;8.27;;;6.10;;
53253;SDS011;39148;53.332;6.922;2023-04-07T11:15:52;7.80;;;5.57;;
53253;SDS011;39148;53.332;6.922;2023-04-07T11:18:19;9.20;;;6.22;;
53253;SDS011;39148;53.332;6.922;2023-04-07T11:20:55;8.63;;;6.05;;
53253;SDS011;39148;53.332;6.922;2023-04-07T11:23:23;9.40;;;6.78;;
53253;SDS011;39148;53.332;6.922;2023-04-07T11:25:53;9.23;;;6.13;;
53253;SDS011;39148;53.332;6.922;2023-04-07T11:28:25;8.35;;;6.30;;
53253;SDS011;39148;53.332;6.922;2023-04-07T11:30:52;8.43;;;6.40;;
53253;SDS011;39148;53.332;6.922;2023-04-07T11:33:19;8.10;;;6.10;;
53253;SDS011;39148;53.332;6.922;2023-04-07T11:35:50;8.32;;;6.18;;
53253;SDS011;39148;53.332;6.922;2023-04-07T11:38:17;8.45;;;6.15;;
53253;SDS011;39148;53.332;6.922;2023-04-07T11:40:43;7.85;;;6.13;;
53253;SDS011;39148;53.332;6.922;2023-04-07T11:43:14;8.95;;;6.80;;
53253;SDS011;39148;53.332;6.922;2023-04-07T11:45:41;8.05;;;5.72;;
53253;SDS011;39148;53.332;6.922;2023-04-07T11:50:56;8.43;;;6.43;;
53253;SDS011;39148;53.332;6.922;2023-04-07T11:53:28;8.73;;;6.85;;
53253;SDS011;39148;53.332;6.922;2023-04-07T11:56:02;8.63;;;6.80;;
53253;SDS011;39148;53.332;6.922;2023-04-07T11:58:28;9.20;;;6.90;;
53253;SDS011;39148;53.332;6.922;2023-04-07T12:00:55;9.60;;;6.53;;
53253;SDS011;39148;53.332;6.922;2023-04-07T12:03:22;8.55;;;6.45;;
53253;SDS011;39148;53.332;6.922;2023-04-07T12:05:47;8.93;;;6.82;;
53253;SDS011;39148;53.332;6.922;2023-04-07T12:08:14;8.45;;;6.10;;
53253;SDS011;39148;53.332;6.922;2023-04-07T12:10:41;9.85;;;6.95;;
53253;SDS011;39148;53.332;6.922;2023-04-07T12:13:07;8.70;;;6.47;;
53253;SDS011;39148;53.332;6.922;2023-04-07T12:15:36;8.65;;;6.72;;
53253;SDS011;39148;53.332;6.922;2023-04-07T12:18:02;9.48;;;6.40;;
53253;SDS011;39148;53.332;6.922;2023-04-07T12:20:28;8.88;;;6.50;;
53253;SDS011;39148;53.332;6.922;2023-04-07T12:22:54;10.77;;;7.70;;
53253;SDS011;39148;53.332;6.922;2023-04-07T12:25:20;8.68;;;6.82;;
53253;SDS011;39148;53.332;6.922;2023-04-07T12:27:46;8.82;;;6.80;;
53253;SDS011;39148;53.332;6.922;2023-04-07T12:30:12;9.55;;;7.32;;
53253;SDS011;39148;53.332;6.922;2023-04-07T12:32:38;9.85;;;7.18;;
53253;SDS011;39148;53.332;6.922;2023-04-07T12:35:04;10.70;;;7.30;;
53253;SDS011;39148;53.332;6.922;2023-04-07T12:37:30;9.30;;;7.00;;
53253;SDS011;39148;53.332;6.922;2023-04-07T12:39:57;9.95;;;7.78;;
53253;SDS011;39148;53.332;6.922;2023-04-07T12:42:24;10.15;;;7.65;;
53253;SDS011;39148;53.332;6.922;2023-04-07T12:44:50;10.25;;;7.38;;
53253;SDS011;39148;53.332;6.922;2023-04-07T12:47:17;9.75;;;7.30;;
53253;SDS011;39148;53.332;6.922;2023-04-07T12:49:43;9.23;;;7.45;;
53253;SDS011;39148;53.332;6.922;2023-04-07T12:52:08;9.85;;;7.25;;
53253;SDS011;39148;53.332;6.922;2023-04-07T12:54:34;9.50;;;7.57;;
53253;SDS011;39148;53.332;6.922;2023-04-07T12:57:00;10.45;;;7.88;;
53253;SDS011;39148;53.332;6.922;2023-04-07T12:59:26;9.77;;;7.68;;
53253;SDS011;39148;53.332;6.922;2023-04-07T13:01:52;9.38;;;7.30;;
53253;SDS011;39148;53.332;6.922;2023-04-07T13:04:18;10.05;;;7.18;;
53253;SDS011;39148;53.332;6.922;2023-04-07T13:06:44;10.07;;;7.57;;
53253;SDS011;39148;53.332;6.922;2023-04-07T13:09:10;9.48;;;7.72;;
53253;SDS011;39148;53.332;6.922;2023-04-07T13:11:36;10.73;;;7.82;;
53253;SDS011;39148;53.332;6.922;2023-04-07T13:14:02;10.00;;;7.35;;
53253;SDS011;39148;53.332;6.922;2023-04-07T13:16:28;9.30;;;7.32;;
53253;SDS011;39148;53.332;6.922;2023-04-07T13:18:54;10.25;;;7.88;;
53253;SDS011;39148;53.332;6.922;2023-04-07T13:21:20;10.65;;;7.72;;
53253;SDS011;39148;53.332;6.922;2023-04-07T13:23:47;10.70;;;7.13;;
53253;SDS011;39148;53.332;6.922;2023-04-07T13:26:14;10.57;;;7.30;;
53253;SDS011;39148;53.332;6.922;2023-04-07T13:28:40;9.63;;;7.70;;
53253;SDS011;39148;53.332;6.922;2023-04-07T13:31:06;9.35;;;7.53;;
53253;SDS011;39148;53.332;6.922;2023-04-07T13:33:34;9.30;;;7.30;;
53253;SDS011;39148;53.332;6.922;2023-04-07T13:36:01;10.00;;;8.00;;
53253;SDS011;39148;53.332;6.922;2023-04-07T13:38:27;12.07;;;8.52;;
53253;SDS011;39148;53.332;6.922;2023-04-07T13:40:53;9.25;;;7.65;;
53253;SDS011;39148;53.332;6.922;2023-04-07T13:43:19;9.07;;;7.43;;
53253;SDS011;39148;53.332;6.922;2023-04-07T13:45:44;10.60;;;7.80;;
53253;SDS011;39148;53.332;6.922;2023-04-07T13:48:10;10.20;;;7.78;;
53253;SDS011;39148;53.332;6.922;2023-04-07T13:50:37;10.18;;;7.57;;
53253;SDS011;39148;53.332;6.922;2023-04-07T13:53:02;10.63;;;7.65;;
53253;SDS011;39148;53.332;6.922;2023-04-07T13:55:29;10.57;;;7.68;;
53253;SDS011;39148;53.332;6.922;2023-04-07T13:57:55;12.38;;;7.68;;
53253;SDS011;39148;53.332;6.922;2023-04-07T14:00:20;10.32;;;8.02;;
53253;SDS011;39148;53.332;6.922;2023-04-07T14:02:47;9.60;;;7.40;;
53253;SDS011;39148;53.332;6.922;2023-04-07T14:05:13;10.10;;;8.02;;
53253;SDS011;39148;53.332;6.922;2023-04-07T14:07:39;9.70;;;7.03;;
53253;SDS011;39148;53.332;6.922;2023-04-07T14:10:05;10.40;;;7.88;;
53253;SDS011;39148;53.332;6.922;2023-04-07T14:12:31;10.98;;;7.93;;
53253;SDS011;39148;53.332;6.922;2023-04-07T14:14:58;11.32;;;8.18;;
53253;SDS011;39148;53.332;6.922;2023-04-07T14:17:24;10.25;;;7.63;;
53253;SDS011;39148;53.332;6.922;2023-04-07T14:19:49;11.80;;;7.25;;
53253;SDS011;39148;53.332;6.922;2023-04-07T14:22:16;9.95;;;7.57;;
53253;SDS011;39148;53.332;6.922;2023-04-07T14:24:42;9.90;;;8.23;;
53253;SDS011;39148;53.332;6.922;2023-04-07T14:27:09;9.27;;;7.55;;
53253;SDS011;39148;53.332;6.922;2023-04-07T14:29:35;10.65;;;7.55;;
53253;SDS011;39148;53.332;6.922;2023-04-07T14:32:01;10.02;;;7.18;;
53253;SDS011;39148;53.332;6.922;2023-04-07T14:34:27;10.75;;;7.93;;
53253;SDS011;39148;53.332;6.922;2023-04-07T14:36:54;9.52;;;7.47;;
53253;SDS011;39148;53.332;6.922;2023-04-07T14:39:22;9.30;;;7.40;;
53253;SDS011;39148;53.332;6.922;2023-04-07T14:41:49;9.55;;;7.15;;
53253;SDS011;39148;53.332;6.922;2023-04-07T14:44:16;9.88;;;7.13;;
53253;SDS011;39148;53.332;6.922;2023-04-07T14:46:42;10.13;;;7.47;;
53253;SDS011;39148;53.332;6.922;2023-04-07T14:49:08;10.68;;;7.78;;
53253;SDS011;39148;53.332;6.922;2023-04-07T14:51:34;10.25;;;8.13;;
53253;SDS011;39148;53.332;6.922;2023-04-07T14:54:00;9.35;;;7.30;;
53253;SDS011;39148;53.332;6.922;2023-04-07T14:56:26;10.07;;;7.10;;
53253;SDS011;39148;53.332;6.922;2023-04-07T14:58:52;9.90;;;7.35;;
53253;SDS011;39148;53.332;6.922;2023-04-07T15:01:17;9.25;;;7.03;;